Weather & Traffic



KLGB 271553Z 00000KT 10SM CLR 16/M01 A3010 RMK AO2 SLP193 T01611006


TAF KLGB 271129Z 2712/2812 VRB03KT P6SM SKC FM272000 18008KT P6SM SKC FM272200 29008KT P6SM SKC FM280400 VRB03KT P6SM SKC